Time;durP1;ratioP1;P1;durP2;ratioP2;P2;SDS_P1;SDS_P2;PMS_P1;PMS_P2;Temp;Humidity;BMP_temperature;BMP_pressure;BME280_temperature;BME280_humidity;BME280_pressure;Samples;Min_cycle;Max_cycle;Signal;HPM_P1;HPM_P2
2022/03/08 00:01:32;;;;;;;10.10;6.40;;;-1.10;96.50;;;-0.24;83.82;98728.38;4982554;28;21039;-78
2022/03/08 00:04:06;;;;;;;9.30;5.80;;;-1.10;96.50;;;-0.27;83.99;98726.03;4984984;28;20505;-78
2022/03/08 00:06:37;;;;;;;6.93;4.90;;;-1.10;96.30;;;-0.31;84.26;98715.13;4989637;28;20473;-78
2022/03/08 00:09:08;;;;;;;8.20;5.30;;;-1.00;96.50;;;-0.30;84.65;98721.91;4990976;28;20858;-78
2022/03/08 00:11:38;;;;;;;9.30;5.10;;;-1.20;96.70;;;-0.30;84.89;98727.06;4990331;28;20473;-78
2022/03/08 00:14:08;;;;;;;8.00;5.97;;;-1.20;96.70;;;-0.28;85.39;98724.41;4990659;28;20536;-78
2022/03/08 00:16:49;;;;;;;8.47;5.03;;;-1.30;96.60;;;-0.29;85.07;98722.75;4988099;28;20826;-77
2022/03/08 00:19:19;;;;;;;8.80;5.80;;;-1.20;96.70;;;-0.34;85.97;98724.78;4989327;28;20538;-78
2022/03/08 00:21:49;;;;;;;10.97;5.37;;;-1.30;97.00;;;-0.39;85.71;98725.09;4989903;28;20972;-78
2022/03/08 00:24:18;;;;;;;7.00;5.30;;;-1.20;96.60;;;-0.42;85.26;98727.06;4987768;28;20514;-78
2022/03/08 00:26:47;;;;;;;6.30;4.67;;;-1.10;96.30;;;-0.45;85.76;98722.13;4992610;28;20839;-77
2022/03/08 00:29:22;;;;;;;7.23;4.90;;;-1.30;96.40;;;-0.52;86.42;98722.50;4987742;28;20497;-78
2022/03/08 00:31:55;;;;;;;8.30;5.70;;;-1.30;96.50;;;-0.52;85.56;98730.22;4992326;28;20553;-78
2022/03/08 00:34:24;;;;;;;9.00;5.20;;;-1.20;96.40;;;-0.52;86.18;98722.50;4993876;28;20460;-78
2022/03/08 00:36:54;;;;;;;14.00;5.33;;;-1.40;96.40;;;-0.54;85.72;98729.50;4990614;28;20481;-78
2022/03/08 00:39:25;;;;;;;7.10;5.10;;;-1.30;96.30;;;-0.54;86.76;98718.41;4990044;28;20827;-77
2022/03/08 00:41:54;;;;;;;9.13;5.63;;;-1.40;96.70;;;-0.52;86.65;98719.94;4988709;28;20467;-78
2022/03/08 00:44:25;;;;;;;8.93;5.20;;;-1.40;96.70;;;-0.55;86.67;98717.59;4988548;28;20487;-78
2022/03/08 00:47:06;;;;;;;8.20;5.20;;;-1.40;96.80;;;-0.56;87.01;98726.22;4988058;28;20529;-78
2022/03/08 00:49:36;;;;;;;7.93;4.97;;;-1.40;96.90;;;-0.60;87.46;98717.06;4989358;28;20462;-78
2022/03/08 00:52:09;;;;;;;7.90;4.90;;;-1.50;97.20;;;-0.61;87.73;98712.84;4985435;28;20495;-77
2022/03/08 00:54:42;;;;;;;8.03;5.30;;;-1.60;97.00;;;-0.60;87.43;98722.22;4990733;28;20818;-77
2022/03/08 00:57:12;;;;;;;8.10;5.33;;;-1.50;96.80;;;-0.62;87.65;98715.50;4989264;28;21107;-78
2022/03/08 00:59:41;;;;;;;9.70;6.03;;;-1.50;97.00;;;-0.67;87.66;98717.56;4993066;28;20501;-78
2022/03/08 01:02:13;;;;;;;6.97;5.10;;;-1.50;97.10;;;-0.71;88.29;98716.94;4986069;28;20474;-78
2022/03/08 01:04:43;;;;;;;7.63;5.70;;;-1.60;97.30;;;-0.76;88.53;98713.84;4989431;28;20601;-78
2022/03/08 01:07:15;;;;;;;7.93;5.00;;;-1.70;97.30;;;-0.77;88.48;98711.41;4989407;28;20458;-77
2022/03/08 01:09:45;;;;;;;8.47;5.10;;;-1.60;97.10;;;-0.78;89.07;98723.41;4988504;28;21062;-78
2022/03/08 01:12:14;;;;;;;7.73;5.03;;;-1.60;97.30;;;-0.79;89.37;98716.63;4987320;28;21095;-78
2022/03/08 01:14:44;;;;;;;9.30;5.90;;;-1.70;97.20;;;-0.76;89.23;98713.03;4989584;28;20747;-77
2022/03/08 01:17:15;;;;;;;14.70;5.13;;;-1.60;97.20;;;-0.84;89.05;98713.53;4984730;28;20881;-77
2022/03/08 01:19:46;;;;;;;7.83;4.80;;;-1.70;97.00;;;-0.81;88.40;98715.09;4986269;28;20474;-77
2022/03/08 01:22:16;;;;;;;9.00;5.40;;;-1.60;97.00;;;-0.80;88.69;98712.41;4988418;28;20516;-78
2022/03/08 01:24:46;;;;;;;10.03;5.70;;;-1.70;96.90;;;-0.82;89.18;98706.56;4988809;28;20499;-78
2022/03/08 01:27:17;;;;;;;8.60;4.83;;;-1.80;97.40;;;-0.81;89.26;98708.22;4987382;28;20498;-77
2022/03/08 01:29:48;;;;;;;8.50;4.87;;;-1.70;97.40;;;-0.81;89.15;98703.06;4987106;28;20455;-77
2022/03/08 01:32:20;;;;;;;8.80;5.27;;;-1.70;97.20;;;-0.83;89.03;98694.63;4986614;28;20579;-77
2022/03/08 01:34:51;;;;;;;11.80;6.47;;;-1.80;97.20;;;-0.83;89.21;98697.19;4986035;28;20792;-78
2022/03/08 01:37:21;;;;;;;7.43;4.87;;;-1.70;97.50;;;-0.82;89.62;98703.16;4989424;28;20469;-77
2022/03/08 01:39:50;;;;;;;7.60;5.10;;;-1.80;97.60;;;-0.86;90.08;98692.28;4988563;28;20543;-77
2022/03/08 01:42:25;;;;;;;9.97;5.17;;;-1.80;97.50;;;-0.89;89.85;98691.66;4987331;28;20980;-78
2022/03/08 01:44:56;;;;;;;10.33;5.57;;;-1.90;97.20;;;-0.92;88.55;98691.84;4987923;28;20527;-78
2022/03/08 01:47:29;;;;;;;8.97;5.37;;;-1.70;96.90;;;-1.04;89.21;98693.44;4988903;28;20467;-79
2022/03/08 01:49:58;;;;;;;9.93;5.53;;;-1.80;97.00;;;-1.05;89.81;98684.13;4994753;28;20983;-78
2022/03/08 01:52:30;;;;;;;8.50;4.90;;;-1.80;97.20;;;-1.04;89.77;98683.19;4990902;28;20828;-78
2022/03/08 01:55:00;;;;;;;8.20;5.20;;;-1.90;97.20;;;-1.05;89.75;98681.56;4992631;28;20525;-78
2022/03/08 01:57:30;;;;;;;7.23;5.27;;;-1.80;97.10;;;-1.06;89.44;98685.03;4990245;28;20493;-78
2022/03/08 02:00:02;;;;;;;8.37;5.27;;;-1.80;97.00;;;-1.13;90.06;98679.50;4988920;28;20540;-78
2022/03/08 02:02:35;;;;;;;8.93;5.83;;;-1.70;96.90;;;-1.18;90.19;98673.81;5776951;22;20495;-75
2022/03/08 02:05:06;;;;;;;14.40;5.47;;;-1.80;97.20;;;-1.17;90.41;98661.81;5023772;28;20925;-75
2022/03/08 02:07:36;;;;;;;7.03;5.53;;;-1.80;97.00;;;-1.14;90.76;98670.13;5018814;28;21105;-75
2022/03/08 02:10:08;;;;;;;8.43;5.60;;;-1.80;97.20;;;-1.16;90.49;98663.47;5023729;28;20521;-75
2022/03/08 02:12:39;;;;;;;9.47;5.70;;;-1.80;97.20;;;-1.20;90.46;98665.41;5020575;28;20460;-75
2022/03/08 02:15:17;;;;;;;8.30;5.10;;;-1.80;96.90;;;-1.19;90.79;98666.25;5019353;28;20476;-75
2022/03/08 02:17:48;;;;;;;9.97;6.13;;;-1.70;96.90;;;-1.18;91.14;98662.75;5020165;28;20457;-75
2022/03/08 02:20:20;;;;;;;13.93;6.57;;;-1.80;96.90;;;-1.15;91.01;98660.00;5021588;28;21283;-75
2022/03/08 02:22:51;;;;;;;9.33;5.53;;;-1.90;97.00;;;-1.16;90.44;98663.47;5021146;28;20830;-75
2022/03/08 02:25:24;;;;;;;9.87;5.97;;;-1.80;96.90;;;-1.16;91.29;98656.59;5020005;28;20530;-75
2022/03/08 02:27:56;;;;;;;10.17;5.20;;;-1.90;97.10;;;-1.13;90.31;98655.56;5018595;28;20462;-75
2022/03/08 02:30:28;;;;;;;8.77;5.60;;;-1.70;96.90;;;-1.12;90.13;98646.97;5022616;28;20487;-75
2022/03/08 02:32:59;;;;;;;12.83;5.17;;;-1.80;96.80;;;-1.13;90.28;98648.69;5019733;28;20502;-75
2022/03/08 02:35:31;;;;;;;7.50;5.80;;;-1.80;97.00;;;-1.14;90.79;98635.97;5015222;28;21327;-75
2022/03/08 02:38:05;;;;;;;7.73;4.93;;;-1.90;97.20;;;-1.13;90.29;98647.88;5020807;28;20461;-75
2022/03/08 02:40:37;;;;;;;7.80;5.50;;;-1.80;97.00;;;-1.13;89.87;98648.69;5019718;28;20555;-75
2022/03/08 02:43:10;;;;;;;7.13;4.83;;;-1.80;96.90;;;-1.21;89.98;98647.53;5022345;28;20490;-75
2022/03/08 02:45:41;;;;;;;8.50;5.10;;;-1.80;96.70;;;-1.22;90.21;98649.31;5019464;28;21050;-75
2022/03/08 02:48:12;;;;;;;9.87;5.40;;;-1.90;97.00;;;-1.22;90.49;98646.75;5012740;28;20436;-75
2022/03/08 02:50:41;;;;;;;9.67;5.93;;;-1.80;96.90;;;-1.23;90.08;98647.66;5020953;28;20831;-75
2022/03/08 02:53:13;;;;;;;11.93;5.93;;;-1.90;97.00;;;-1.23;90.36;98646.81;5020499;28;20473;-75
2022/03/08 02:55:43;;;;;;;7.00;5.13;;;-1.90;96.90;;;-1.26;90.11;98641.91;5021683;28;20525;-75
2022/03/08 02:58:14;;;;;;;7.43;5.37;;;-1.90;96.80;;;-1.26;90.46;98647.84;5019933;28;20549;-75
2022/03/08 03:00:44;;;;;;;6.83;4.63;;;-2.00;97.10;;;-1.27;90.65;98642.81;5021012;28;20531;-75
2022/03/08 03:03:14;;;;;;;9.20;6.13;;;-2.00;97.00;;;-1.28;90.21;98643.72;5021645;28;20496;-75
2022/03/08 03:05:44;;;;;;;7.17;4.80;;;-1.90;96.80;;;-1.31;90.50;98643.91;5022874;28;20483;-75
2022/03/08 03:08:15;;;;;;;6.13;5.03;;;-2.00;97.00;;;-1.30;90.75;98645.56;5020825;28;20468;-75
2022/03/08 03:10:45;;;;;;;9.07;5.77;;;-2.10;97.20;;;-1.34;89.97;98644.94;5021106;28;20498;-75
2022/03/08 03:13:16;;;;;;;9.90;5.83;;;-2.00;96.90;;;-1.31;90.61;98643.91;5020230;28;20478;-75
2022/03/08 03:15:46;;;;;;;10.90;5.90;;;-2.10;97.10;;;-1.30;90.60;98650.72;5019860;28;20474;-75
2022/03/08 03:18:16;;;;;;;8.10;5.60;;;-2.10;97.30;;;-1.31;90.18;98643.91;5021162;28;20465;-75
2022/03/08 03:20:46;;;;;;;7.57;4.97;;;-2.10;97.30;;;-1.35;90.87;98638.16;5022165;28;20448;-75
2022/03/08 03:23:17;;;;;;;7.67;4.97;;;-2.10;97.20;;;-1.43;91.40;98634.47;5020762;28;20513;-75
2022/03/08 03:25:47;;;;;;;10.60;5.33;;;-2.20;97.40;;;-1.42;91.34;98636.91;5021742;28;20858;-75
2022/03/08 03:28:17;;;;;;;7.37;5.30;;;-2.20;97.40;;;-1.42;91.81;98642.03;5019078;28;20830;-75
2022/03/08 03:30:48;;;;;;;8.63;5.27;;;-2.30;97.50;;;-1.41;91.57;98642.88;5022238;28;20863;-75
2022/03/08 03:33:18;;;;;;;8.63;6.30;;;-2.20;97.50;;;-1.46;91.64;98639.78;5022885;28;20445;-75
2022/03/08 03:35:47;;;;;;;9.40;5.53;;;-2.20;97.70;;;-1.45;91.74;98634.56;5021625;28;20474;-75
2022/03/08 03:38:18;;;;;;;7.60;5.30;;;-2.20;97.50;;;-1.47;91.53;98633.84;5021612;28;20467;-75
2022/03/08 03:40:48;;;;;;;14.53;5.83;;;-2.30;97.50;;;-1.54;91.77;98630.84;5018593;28;20736;-75
2022/03/08 03:43:18;;;;;;;8.87;5.60;;;-2.40;97.50;;;-1.57;92.50;98623.34;5019358;28;20494;-75
2022/03/08 03:45:48;;;;;;;10.17;5.40;;;-2.50;97.90;;;-1.61;92.67;98621.06;5019786;28;20503;-75
2022/03/08 03:48:17;;;;;;;8.20;5.10;;;-2.60;97.90;;;-1.61;92.97;98624.47;5021386;28;20455;-75
2022/03/08 03:50:47;;;;;;;10.50;5.70;;;-2.60;98.00;;;-1.64;92.91;98624.66;5021696;28;21126;-75
2022/03/08 03:53:18;;;;;;;8.87;5.50;;;-2.60;98.00;;;-1.64;93.22;98622.09;5022363;28;20453;-75
2022/03/08 03:55:49;;;;;;;10.33;5.43;;;-2.60;98.20;;;-1.72;93.79;98624.31;5018399;28;20474;-75
2022/03/08 03:58:18;;;;;;;9.03;5.43;;;-2.70;98.30;;;-1.72;93.73;98619.19;5015137;28;20471;-75
2022/03/08 04:00:48;;;;;;;9.17;6.03;;;-2.70;98.00;;;-1.71;93.56;98620.84;5017545;28;20494;-75
2022/03/08 04:03:18;;;;;;;9.10;5.90;;;-2.60;98.00;;;-1.71;92.96;98618.28;5021931;28;20470;-74
2022/03/08 04:05:48;;;;;;;8.90;5.83;;;-2.50;97.80;;;-1.72;92.91;98616.63;5022381;28;20580;-75
2022/03/08 04:08:20;;;;;;;9.83;5.40;;;-2.60;97.80;;;-1.71;92.69;98620.84;5018349;28;20916;-73
2022/03/08 04:10:50;;;;;;;7.27;5.00;;;-2.50;97.70;;;-1.73;92.79;98612.41;5019716;28;20796;-75
2022/03/08 04:13:20;;;;;;;9.40;5.70;;;-2.60;97.70;;;-1.71;92.96;98614.88;5020945;28;20505;-74
2022/03/08 04:15:50;;;;;;;7.97;5.53;;;-2.60;97.70;;;-1.75;92.73;98614.25;5020877;28;20942;-75
2022/03/08 04:18:22;;;;;;;8.00;5.70;;;-2.60;97.70;;;-1.76;92.96;98610.03;5018693;28;20493;-76
2022/03/08 04:20:51;;;;;;;10.60;5.73;;;-2.60;97.70;;;-1.78;92.77;98608.50;5019348;28;20541;-74
2022/03/08 04:23:22;;;;;;;10.37;6.60;;;-2.50;97.70;;;-1.81;93.10;98601.84;5017734;28;20473;-78
2022/03/08 04:25:52;;;;;;;7.40;4.87;;;-2.60;97.80;;;-1.81;93.37;98601.00;5019548;28;20797;-75
2022/03/08 04:28:21;;;;;;;8.83;5.40;;;-2.60;97.80;;;-1.81;93.08;98612.09;5021530;28;21024;-75
2022/03/08 04:30:51;;;;;;;10.93;5.27;;;-2.60;97.70;;;-1.84;92.93;98602.00;5021507;28;20967;-75
2022/03/08 04:33:21;;;;;;;12.87;6.10;;;-2.60;97.70;;;-1.87;93.00;98599.63;5020131;28;20822;-75
2022/03/08 04:35:51;;;;;;;8.80;5.70;;;-2.60;97.70;;;-1.87;93.31;98602.19;5019693;28;20446;-75
2022/03/08 04:38:22;;;;;;;27.90;11.30;;;-2.70;97.70;;;-1.88;93.12;98604.88;5018800;28;20957;-75
2022/03/08 04:40:53;;;;;;;10.23;4.80;;;-2.60;97.70;;;-1.88;93.10;98602.31;5020332;28;20523;-75
2022/03/08 04:43:22;;;;;;;11.00;6.00;;;-2.70;97.60;;;-1.91;92.78;98593.09;5021142;28;20452;-75
2022/03/08 04:45:52;;;;;;;11.67;6.00;;;-2.60;97.50;;;-1.92;93.06;98591.44;5020377;28;20530;-74
2022/03/08 04:48:21;;;;;;;13.27;6.30;;;-2.70;97.70;;;-1.93;93.12;98605.16;5021301;28;21558;-75
2022/03/08 04:50:51;;;;;;;11.17;6.00;;;-2.80;97.90;;;-1.95;93.74;98604.44;5020883;28;20463;-75
2022/03/08 04:53:22;;;;;;;8.30;5.30;;;-2.80;98.10;;;-1.93;93.97;98605.16;5020278;28;20503;-78
2022/03/08 04:55:51;;;;;;;7.93;5.60;;;-2.80;98.00;;;-1.96;93.75;98607.91;5021313;28;20869;-74
2022/03/08 04:58:21;;;;;;;7.10;5.23;;;-2.80;97.90;;;-1.99;93.50;98605.53;5021379;28;20449;-74
2022/03/08 05:00:52;;;;;;;10.03;5.93;;;-2.80;97.70;;;-2.01;93.43;98611.69;5020880;28;20412;-74
2022/03/08 05:03:21;;;;;;;7.57;5.60;;;-2.80;97.60;;;-2.04;93.02;98607.53;5020194;28;20947;-78
2022/03/08 05:05:51;;;;;;;8.70;5.20;;;-2.80;97.60;;;-2.11;93.03;98596.03;5021390;28;20596;-74
2022/03/08 05:08:21;;;;;;;10.20;6.57;;;-2.80;97.50;;;-2.11;93.40;98596.03;5021337;28;20447;-75
2022/03/08 05:10:52;;;;;;;8.50;5.57;;;-3.00;97.70;;;-2.10;93.58;98593.38;5021778;28;20451;-74
2022/03/08 05:13:22;;;;;;;10.30;5.10;;;-3.00;97.90;;;-2.18;94.58;98595.59;5019700;28;20418;-74
2022/03/08 05:15:51;;;;;;;7.90;5.37;;;-3.10;98.10;;;-2.23;94.24;98599.38;5020459;28;20465;-74
2022/03/08 05:18:21;;;;;;;9.33;5.77;;;-3.10;98.10;;;-2.28;95.17;98601.38;5021805;28;20862;-74
2022/03/08 05:20:51;;;;;;;9.10;6.20;;;-3.20;98.30;;;-2.31;95.30;98601.56;5020921;28;20471;-74
2022/03/08 05:23:22;;;;;;;8.03;5.40;;;-3.10;98.20;;;-2.34;95.51;98601.75;5021082;28;20462;-74
2022/03/08 05:25:52;;;;;;;8.67;5.50;;;-3.20;98.20;;;-2.37;95.15;98594.25;5021223;28;20541;-74
2022/03/08 05:28:22;;;;;;;12.50;6.10;;;-3.00;98.00;;;-2.35;95.44;98594.97;5020745;28;20494;-74
2022/03/08 05:30:51;;;;;;;11.60;4.80;;;-3.00;98.10;;;-2.37;95.20;98600.19;5019925;28;20540;-74
2022/03/08 05:33:21;;;;;;;9.07;5.47;;;-3.00;97.90;;;-2.41;95.43;98595.34;5020775;28;20837;-74
2022/03/08 05:35:50;;;;;;;9.80;5.27;;;-3.00;97.90;;;-2.41;96.04;98597.91;5020536;28;21153;-74
2022/03/08 05:38:20;;;;;;;15.20;6.10;;;-3.00;98.00;;;-2.42;96.06;98596.25;5020964;28;20445;-74
2022/03/08 05:40:52;;;;;;;7.40;5.40;;;-3.10;98.10;;;-2.43;96.14;98594.63;5021540;28;21001;-74
2022/03/08 05:43:22;;;;;;;12.80;5.90;;;-3.10;97.90;;;-2.44;96.50;98598.09;5021580;28;20454;-74
2022/03/08 05:45:51;;;;;;;7.93;5.60;;;-3.10;98.20;;;-2.43;96.73;98602.31;5020442;28;20493;-75
2022/03/08 05:48:20;;;;;;;6.87;5.00;;;-3.10;98.30;;;-2.44;96.49;98598.94;5020011;28;20464;-74
2022/03/08 05:50:50;;;;;;;15.30;6.30;;;-3.10;98.40;;;-2.47;97.00;98608.53;5020885;28;20425;-74
2022/03/08 05:53:19;;;;;;;16.50;6.20;;;-3.10;98.30;;;-2.44;96.75;98600.66;5019013;28;20475;-74
2022/03/08 05:55:51;;;;;;;9.03;6.10;;;-3.20;98.70;;;-2.44;96.92;98598.09;5018732;28;20924;-74
2022/03/08 05:58:20;;;;;;;10.10;5.60;;;-3.20;98.30;;;-2.47;97.17;98595.72;5019778;28;20939;-74
2022/03/08 06:00:49;;;;;;;8.20;5.63;;;-3.20;98.40;;;-2.45;97.18;98593.88;5020194;28;21009;-74
2022/03/08 06:03:20;;;;;;;11.37;6.07;;;-3.20;98.60;;;-2.44;97.40;98603.22;5020644;28;20557;-74
2022/03/08 06:05:50;;;;;;;9.63;6.60;;;-3.20;98.60;;;-2.49;97.59;98606.03;5020211;28;21024;-74
2022/03/08 06:08:20;;;;;;;8.80;5.83;;;-3.40;98.70;;;-2.51;98.47;98613.00;5020008;28;20446;-75
2022/03/08 06:10:52;;;;;;;9.60;6.40;;;-3.40;99.00;;;-2.48;98.09;98612.00;5019833;28;20467;-74
2022/03/08 06:13:21;;;;;;;8.97;6.00;;;-3.30;99.10;;;-2.49;97.91;98615.47;5021435;28;20466;-75
2022/03/08 06:15:50;;;;;;;12.63;6.30;;;-3.30;98.90;;;-2.48;98.02;98607.69;5020533;28;20501;-75
2022/03/08 06:18:20;;;;;;;9.57;5.83;;;-3.30;98.70;;;-2.45;98.12;98616.94;5018352;28;20457;-74
2022/03/08 06:20:50;;;;;;;9.00;6.10;;;-3.30;98.80;;;-2.45;98.08;98612.63;5020305;28;20496;-74
2022/03/08 06:23:20;;;;;;;11.30;6.87;;;-3.30;98.90;;;-2.44;98.28;98608.34;5020073;28;20455;-75
2022/03/08 06:25:51;;;;;;;11.30;6.33;;;-3.30;98.90;;;-2.43;98.15;98612.56;5020281;28;20518;-74
2022/03/08 06:28:21;;;;;;;9.87;6.50;;;-3.30;98.80;;;-2.42;98.08;98612.44;5019698;28;20452;-74
2022/03/08 06:30:51;;;;;;;9.33;5.80;;;-3.20;98.90;;;-2.42;98.50;98611.63;5019625;28;20447;-74
2022/03/08 06:33:22;;;;;;;11.40;5.90;;;-3.30;98.90;;;-2.47;98.46;98609.34;5022349;28;21161;-74
2022/03/08 06:35:53;;;;;;;8.80;5.43;;;-3.20;98.80;;;-2.50;98.93;98611.28;5023714;28;20419;-74
2022/03/08 06:38:22;;;;;;;7.47;5.57;;;-3.30;98.70;;;-2.46;99.14;98615.31;5023564;28;20426;-74
2022/03/08 06:40:56;;;;;;;8.63;5.80;;;-3.30;99.00;;;-2.47;98.92;98614.47;5023426;28;20442;-74
2022/03/08 06:43:26;;;;;;;11.00;5.73;;;-3.20;98.90;;;-2.44;98.59;98609.16;5022618;28;20955;-74
2022/03/08 06:45:57;;;;;;;8.80;5.90;;;-3.20;98.90;;;-2.42;98.90;98621.84;5024060;28;21338;-74
2022/03/08 06:48:31;;;;;;;10.67;6.20;;;-3.30;99.10;;;-2.38;99.03;98620.75;5023635;28;20847;-74
2022/03/08 06:51:01;;;;;;;10.20;5.90;;;-3.10;99.00;;;-2.36;99.18;98631.75;5023093;28;20430;-75
2022/03/08 06:53:31;;;;;;;9.83;5.73;;;-3.20;99.00;;;-2.37;99.67;98624.97;5023419;28;20442;-74
2022/03/08 06:56:01;;;;;;;10.87;6.40;;;-3.20;99.50;;;-2.37;99.92;98632.66;5022969;28;20437;-75
2022/03/08 06:58:31;;;;;;;8.73;5.90;;;-3.10;99.20;;;-2.38;99.74;98638.69;5023212;28;20450;-74
2022/03/08 07:01:01;;;;;;;10.27;5.93;;;-3.10;99.20;;;-2.34;100.00;98647.84;5021515;28;20863;-74
2022/03/08 07:03:32;;;;;;;10.43;6.33;;;-3.20;99.30;;;-2.31;100.00;98647.66;5023213;28;20482;-74
2022/03/08 07:06:01;;;;;;;9.80;5.23;;;-3.10;99.40;;;-2.29;100.00;98650.94;5023207;28;20474;-74
2022/03/08 07:08:32;;;;;;;14.37;6.37;;;-3.10;99.80;;;-2.25;100.00;98642.16;5024047;28;20450;-74
2022/03/08 07:11:03;;;;;;;8.23;5.60;;;-3.10;99.70;;;-2.23;100.00;98658.25;5023029;28;20424;-74
2022/03/08 07:13:34;;;;;;;8.77;5.73;;;-3.00;99.70;;;-2.20;100.00;98652.94;5022313;28;21169;-74
2022/03/08 07:16:04;;;;;;;9.00;6.00;;;-3.00;99.50;;;-2.18;100.00;98651.94;5021488;28;20454;-74
2022/03/08 07:18:35;;;;;;;11.63;6.60;;;-3.00;99.60;;;-2.18;100.00;98656.22;5021421;28;20500;-74
2022/03/08 07:21:04;;;;;;;8.10;5.63;;;-2.90;99.40;;;-2.13;100.00;98655.06;5021162;28;20446;-74
2022/03/08 07:23:34;;;;;;;17.40;5.80;;;-3.00;99.80;;;-2.10;100.00;98654.88;5021935;28;20482;-74
2022/03/08 07:26:05;;;;;;;9.77;6.00;;;-3.00;99.80;;;-2.07;100.00;98659.78;5021373;28;20460;-74
2022/03/08 07:28:41;;;;;;;8.20;5.63;;;-2.90;99.90;;;-2.05;100.00;98657.94;5021500;28;20541;-74
2022/03/08 07:31:12;;;;;;;10.70;6.30;;;-2.90;99.90;;;-2.03;100.00;98655.31;5020377;28;20447;-74
2022/03/08 07:33:43;;;;;;;10.37;6.87;;;-2.80;99.90;;;-1.99;100.00;98656.78;5020361;28;20426;-74
2022/03/08 07:36:12;;;;;;;10.20;6.37;;;-2.80;99.90;;;-1.96;100.00;98651.44;5021977;28;20506;-74
2022/03/08 07:38:40;;;;;;;7.40;6.00;;;-2.80;99.90;;;-1.89;100.00;98652.72;5021609;28;20448;-74
2022/03/08 07:41:12;;;;;;;12.43;5.80;;;-2.70;99.90;;;-1.86;100.00;98649.97;5019398;28;20961;-74
2022/03/08 07:43:41;;;;;;;7.53;5.70;;;-2.60;99.90;;;-1.81;100.00;98645.41;5020128;28;20985;-74
2022/03/08 07:46:10;;;;;;;8.30;5.30;;;-2.60;99.90;;;-1.75;100.00;98647.56;5020077;28;21022;-75
2022/03/08 07:48:41;;;;;;;12.53;6.10;;;-2.50;99.90;;;-1.67;100.00;98647.91;5019745;28;20455;-75
2022/03/08 07:51:10;;;;;;;9.77;6.60;;;-2.40;99.90;;;-1.60;100.00;98646.59;5020773;28;20954;-75
2022/03/08 07:53:40;;;;;;;14.40;5.13;;;-2.40;99.90;;;-1.45;100.00;98647.38;5021582;28;20444;-75
2022/03/08 07:56:12;;;;;;;9.17;5.13;;;-2.10;99.00;;;-1.36;100.00;98646.81;5022229;28;20476;-75
2022/03/08 07:58:44;;;;;;;7.63;5.13;;;-2.00;98.90;;;-1.27;99.84;98645.38;5021976;28;20452;-74
2022/03/08 08:01:14;;;;;;;6.30;4.50;;;-1.90;99.00;;;-1.18;99.51;98652.50;5022847;28;20435;-75
2022/03/08 08:03:45;;;;;;;8.93;5.27;;;-1.80;98.60;;;-1.09;98.93;98649.31;5022063;28;20474;-74
2022/03/08 08:06:21;;;;;;;7.47;4.53;;;-1.80;99.20;;;-1.00;99.16;98658.97;5021586;28;20542;-74
2022/03/08 08:08:51;;;;;;;8.50;5.10;;;-1.70;99.00;;;-0.90;98.61;98654.88;5023207;28;20431;-74
2022/03/08 08:11:23;;;;;;;8.83;5.90;;;-1.60;98.30;;;-0.80;98.01;98661.06;5023125;28;20487;-75
2022/03/08 08:13:53;;;;;;;6.60;4.73;;;-1.50;98.20;;;-0.73;97.59;98662.31;5022905;28;20439;-75
2022/03/08 08:16:24;;;;;;;15.03;5.63;;;-1.40;98.40;;;-0.62;96.31;98659.84;5022305;28;20450;-74
2022/03/08 08:18:54;;;;;;;11.20;5.03;;;-1.20;97.90;;;-0.56;95.85;98664.59;5022978;28;21108;-75
2022/03/08 08:21:24;;;;;;;5.27;4.47;;;-1.20;97.70;;;-0.45;95.53;98658.72;5022172;28;20474;-74
2022/03/08 08:23:58;;;;;;;11.00;5.17;;;-1.10;97.60;;;-0.35;93.91;98651.22;5022052;28;20453;-74
2022/03/08 08:26:30;;;;;;;7.70;5.33;;;-1.00;97.10;;;-0.24;90.98;98651.31;5022362;28;20541;-75
2022/03/08 08:28:58;;;;;;;8.73;4.70;;;-0.70;96.60;;;-0.15;90.24;98643.81;5021533;28;20441;-74
2022/03/08 08:31:30;;;;;;;7.13;4.53;;;-0.70;96.70;;;-0.08;89.95;98641.63;5022447;28;20473;-75
2022/03/08 08:33:58;;;;;;;8.20;5.20;;;-0.60;96.60;;;-0.01;89.70;98645.44;5022086;28;20502;-75
2022/03/08 08:36:27;;;;;;;7.73;4.87;;;-0.60;96.60;;;0.07;90.08;98637.97;5022246;28;20485;-75
2022/03/08 08:38:57;;;;;;;6.90;4.60;;;-0.50;96.70;;;0.16;88.60;98642.50;5022460;28;20978;-75
2022/03/08 08:41:29;;;;;;;7.17;4.73;;;-0.40;96.20;;;0.27;87.68;98645.16;5021587;28;20455;-75
2022/03/08 08:43:59;;;;;;;8.23;5.03;;;-0.30;96.10;;;0.35;87.64;98637.69;5021669;28;20479;-75
2022/03/08 08:46:29;;;;;;;9.17;4.90;;;-0.20;96.00;;;0.40;88.04;98627.09;5021172;28;20439;-75
2022/03/08 08:48:59;;;;;;;8.33;5.07;;;-0.20;96.70;;;0.48;88.00;98627.38;5021414;28;20504;-74
2022/03/08 08:51:29;;;;;;;6.27;4.80;;;-0.10;96.80;;;0.50;88.90;98636.63;5021029;28;20455;-75
2022/03/08 08:53:57;;;;;;;19.80;5.23;;;-0.10;97.00;;;0.56;89.00;98629.38;5019894;28;20938;-75
2022/03/08 08:56:28;;;;;;;5.77;3.97;;;-0.10;96.60;;;0.60;88.28;98621.31;5020795;28;20504;-75
2022/03/08 08:58:58;;;;;;;10.93;4.57;;;-0.10;96.20;;;0.65;87.68;98626.97;5022397;28;20517;-75
2022/03/08 09:01:27;;;;;;;8.37;5.43;;;0.00;96.20;;;0.72;86.74;98619.63;5020408;28;20470;-75
2022/03/08 09:03:59;;;;;;;9.53;5.33;;;0.10;96.10;;;0.79;86.71;98619.09;5022583;28;20491;-75
2022/03/08 09:06:28;;;;;;;6.93;4.77;;;0.20;96.30;;;0.90;85.24;98610.56;5020563;28;20822;-75
2022/03/08 09:08:57;;;;;;;12.97;4.97;;;0.40;95.70;;;0.98;84.79;98610.81;5021344;28;20997;-75
2022/03/08 09:11:30;;;;;;;10.80;4.83;;;0.40;96.00;;;1.05;84.57;98606.84;5019979;28;20817;-75
2022/03/08 09:13:59;;;;;;;7.53;5.10;;;0.50;95.90;;;1.12;84.91;98608.03;5019750;28;20981;-75
2022/03/08 09:16:29;;;;;;;7.73;5.30;;;0.60;96.00;;;1.19;83.79;98606.66;5019077;28;20919;-75
2022/03/08 09:18:59;;;;;;;7.07;4.87;;;0.70;95.70;;;1.30;83.03;98596.38;5020332;28;20496;-74
2022/03/08 09:21:29;;;;;;;9.90;5.37;;;0.80;95.60;;;1.37;83.15;98592.41;5019863;28;20448;-75
2022/03/08 09:23:58;;;;;;;7.77;5.40;;;0.80;95.60;;;1.45;82.94;98597.78;5018295;28;20881;-75
2022/03/08 09:26:30;;;;;;;8.83;5.00;;;1.00;95.50;;;1.58;80.87;98589.13;5018590;28;20458;-75
2022/03/08 09:29:00;;;;;;;6.13;4.50;;;1.10;95.00;;;1.65;81.49;98587.72;5019256;28;21206;-75
2022/03/08 09:31:30;;;;;;;8.30;5.27;;;1.10;95.30;;;1.75;80.91;98591.22;5019199;28;20443;-75
2022/03/08 09:34:00;;;;;;;7.43;4.43;;;1.30;95.20;;;1.83;80.77;98596.63;5019504;28;20458;-75
2022/03/08 09:36:30;;;;;;;8.60;4.20;;;1.30;95.20;;;1.94;79.15;98578.56;5019369;28;20508;-75
2022/03/08 09:39:00;;;;;;;7.57;4.43;;;1.50;94.90;;;2.03;78.36;98583.81;5019070;28;20839;-75
2022/03/08 09:41:31;;;;;;;6.67;4.20;;;1.60;94.40;;;2.12;77.50;98577.09;5018258;28;20950;-75
2022/03/08 09:44:01;;;;;;;7.70;4.90;;;1.70;94.50;;;2.23;76.64;98569.31;5019805;28;20459;-75
2022/03/08 09:46:31;;;;;;;7.87;5.00;;;1.80;94.10;;;2.35;75.60;98572.69;5019223;28;20458;-75
2022/03/08 09:49:01;;;;;;;6.10;4.10;;;1.90;94.00;;;2.50;73.66;98576.63;5019367;28;20529;-75
2022/03/08 09:51:30;;;;;;;5.67;3.93;;;2.10;93.50;;;2.57;73.41;98569.22;5017480;28;20446;-75
2022/03/08 09:54:00;;;;;;;7.77;4.83;;;2.20;93.40;;;2.63;73.60;98563.56;5019087;28;20958;-75
2022/03/08 09:56:31;;;;;;;6.23;4.30;;;2.10;93.60;;;2.72;71.89;98567.97;5019675;28;20496;-75
2022/03/08 09:59:02;;;;;;;6.67;4.20;;;2.30;93.30;;;2.81;72.12;98567.22;5020020;28;20454;-75
2022/03/08 10:01:32;;;;;;;4.57;3.20;;;2.40;93.30;;;2.92;69.92;98564.56;5020816;28;20469;-75
2022/03/08 10:04:05;;;;;;;5.60;3.67;;;2.50;92.60;;;3.01;69.94;98564.66;5020875;28;20494;-75
2022/03/08 10:06:54;;;;;;;6.70;4.17;;;2.60;92.80;;;3.12;68.40;98560.34;5021126;28;20540;-75
2022/03/08 10:09:25;;;;;;;6.23;4.10;;;2.70;92.30;;;3.20;67.79;98561.34;5024408;28;20507;-75
2022/03/08 10:11:57;;;;;;;7.57;4.10;;;2.80;92.20;;;3.24;67.94;98561.91;5023883;28;20495;-75
2022/03/08 10:14:37;;;;;;;6.00;4.70;;;2.80;92.30;;;3.29;67.85;98562.34;5025617;28;20472;-75
2022/03/08 10:17:07;;;;;;;5.57;3.13;;;2.80;92.30;;;3.35;65.77;98554.06;5024622;28;20456;-75
2022/03/08 10:19:45;;;;;;;7.30;4.50;;;3.00;91.70;;;3.39;65.51;98551.13;5024778;28;20995;-75
2022/03/08 10:22:29;;;;;;;5.90;4.20;;;2.90;91.50;;;3.47;66.04;98546.09;5024291;28;20850;-75
2022/03/08 10:25:16;;;;;;;8.13;4.40;;;3.00;91.70;;;3.53;65.95;98539.59;5024820;28;20446;-75
2022/03/08 10:28:01;;;;;;;4.43;3.70;;;3.10;91.80;;;3.67;64.57;98547.00;5024169;28;20460;-75
2022/03/08 10:30:48;;;;;;;5.40;3.60;;;3.20;91.40;;;3.74;63.49;98542.94;5023692;28;20444;-75
2022/03/08 10:33:20;;;;;;;5.83;4.10;;;3.30;91.00;;;3.79;64.22;98539.94;5024761;28;20563;-75
2022/03/08 10:35:54;;;;;;;4.17;3.50;;;3.30;91.30;;;3.85;63.63;98534.25;5024930;28;20445;-75